CZEM/ZEM METAR and TAF weather

Enter ICAO airport designator
Station Type Date Time Source
CZEM METAR 2021/02/18 16:00 UTC NOAA

CZEM 181600Z 21009KT 15SM FEW120 M17/M20 A3042 RMK AC1 LAST STFD OBS/NEXT 03071500 UTC SLP303


Station Type Date Time Source
CZEM Decoded METAR 2021/02/18 16:00 UTC NOAA

Eastmain River Airport, Canada (CZEM) 52-14N 078-31W
Feb 18, 2021 - 11:00 AM EST / 2021.02.18 1600 UTC
Wind: from the SSW (210 degrees) at 10 MPH (9 KT):0
Visibility: 15 mile(s):0
Sky conditions: mostly clear
Temperature: 1 F (-17 C)
Windchill: -14 F (-26 C):2
Dew Point: -4 F (-20 C)
Relative Humidity: 77%
Pressure (altimeter): 30.42 in. Hg (1030 hPa)
ob: CZEM 181600Z 21009KT 15SM FEW120 M17/M20 A3042 RMK AC1 LAST STFD OBS/NEXT 03071500 UTC SLP303
cycle: 16

Station Type Date Time Source
CZEM TAF UTC NOAA

Error!

Example: see airport list